createdAt,value
2019-06-10T00:01:04.284Z,17.30
2019-06-10T00:03:31.849Z,17.30
2019-06-10T00:06:03.353Z,17.30
2019-06-10T00:08:30.981Z,17.30
2019-06-10T00:11:01.897Z,17.20
2019-06-10T00:13:31.379Z,17.20
2019-06-10T00:16:02.732Z,17.10
2019-06-10T00:18:41.117Z,17.00
2019-06-10T00:21:03.329Z,17.00
2019-06-10T00:23:32.046Z,17.10
2019-06-10T00:26:04.396Z,17.20
2019-06-10T00:28:31.276Z,17.10
2019-06-10T00:31:01.161Z,17.00
2019-06-10T00:33:30.974Z,17.10
2019-06-10T00:36:01.721Z,17.10
2019-06-10T00:38:31.894Z,17.20
2019-06-10T00:41:02.668Z,17.20
2019-06-10T00:43:31.311Z,17.10
2019-06-10T00:46:00.698Z,17.00
2019-06-10T00:48:32.314Z,17.00
2019-06-10T00:51:02.572Z,16.90
2019-06-10T00:53:31.763Z,16.90
2019-06-10T00:56:03.268Z,16.80
2019-06-10T00:58:32.134Z,16.90
2019-06-10T01:01:02.588Z,16.80
2019-06-10T01:03:31.567Z,16.80
2019-06-10T01:06:01.582Z,16.70
2019-06-10T01:08:31.645Z,16.60
2019-06-10T01:11:05.593Z,16.60
2019-06-10T01:13:31.062Z,16.60
2019-06-10T01:16:01.666Z,16.70
2019-06-10T01:18:35.642Z,16.70
2019-06-10T01:21:01.922Z,16.60
2019-06-10T01:23:31.097Z,16.80
2019-06-10T01:26:01.624Z,16.80
2019-06-10T01:28:31.382Z,16.80
2019-06-10T01:31:01.073Z,16.80
2019-06-10T01:33:31.696Z,16.80
2019-06-10T01:36:00.740Z,16.70
2019-06-10T01:38:31.541Z,16.60
2019-06-10T01:41:01.525Z,16.50
2019-06-10T01:43:32.048Z,16.30
2019-06-10T01:46:01.646Z,16.10
2019-06-10T01:48:43.747Z,16.00
2019-06-10T01:51:01.752Z,15.90
2019-06-10T01:53:31.495Z,16.00
2019-06-10T01:56:01.052Z,15.90
2019-06-10T01:58:31.623Z,15.90
2019-06-10T02:01:23.382Z,15.90
2019-06-10T02:03:52.233Z,16.00
2019-06-10T02:06:25.398Z,16.20
2019-06-10T02:08:53.538Z,16.20
2019-06-10T02:11:23.502Z,16.20
2019-06-10T02:13:52.073Z,16.40
2019-06-10T02:16:23.866Z,16.70
2019-06-10T02:19:00.252Z,16.90
2019-06-10T02:21:24.258Z,17.20
2019-06-10T02:23:52.133Z,17.30
2019-06-10T02:26:23.270Z,17.30
2019-06-10T02:28:51.341Z,17.40
2019-06-10T02:31:29.161Z,17.40
2019-06-10T02:33:52.408Z,17.30
2019-06-10T02:36:28.953Z,17.40
2019-06-10T02:38:53.985Z,17.10
2019-06-10T02:41:29.543Z,16.90
2019-06-10T02:43:53.381Z,16.70
2019-06-10T02:46:30.675Z,16.50
2019-06-10T02:48:54.355Z,16.40
2019-06-10T02:51:29.980Z,16.30
2019-06-10T02:53:53.952Z,16.10
2019-06-10T02:56:28.401Z,16.10
2019-06-10T02:58:53.591Z,16.00
2019-06-10T03:01:28.347Z,16.00
2019-06-10T03:03:54.354Z,16.00
2019-06-10T03:06:29.763Z,15.90
2019-06-10T03:08:54.954Z,15.90
2019-06-10T03:11:29.702Z,15.90
2019-06-10T03:13:54.452Z,15.90
2019-06-10T03:16:45.163Z,15.80
2019-06-10T03:19:13.699Z,15.80
2019-06-10T03:21:42.910Z,15.80
2019-06-10T03:24:13.103Z,16.10
2019-06-10T03:26:42.839Z,16.30
2019-06-10T03:29:12.944Z,16.50
2019-06-10T03:31:47.641Z,16.50
2019-06-10T03:34:14.716Z,16.60
2019-06-10T03:36:43.042Z,16.60
2019-06-10T03:39:13.319Z,16.70
2019-06-10T03:41:42.333Z,16.80
2019-06-10T03:44:13.167Z,17.00
2019-06-10T03:46:43.135Z,17.30
2019-06-10T03:49:12.648Z,17.40
2019-06-10T03:51:42.953Z,17.40
2019-06-10T03:54:13.169Z,17.10
2019-06-10T03:56:43.050Z,16.60
2019-06-10T03:59:12.346Z,16.20
2019-06-10T04:01:42.590Z,15.80
2019-06-10T04:04:13.070Z,15.70
2019-06-10T04:06:44.159Z,15.50
2019-06-10T04:09:12.200Z,15.40
2019-06-10T04:11:43.156Z,15.40
2019-06-10T04:14:13.071Z,15.30
2019-06-10T04:16:43.358Z,15.30
2019-06-10T04:19:13.140Z,15.40
2019-06-10T04:21:43.279Z,16.00
2019-06-10T04:24:12.863Z,16.30
2019-06-10T04:26:43.446Z,16.60
2019-06-10T04:29:12.934Z,16.90
2019-06-10T04:31:42.525Z,17.40
2019-06-10T04:34:12.428Z,17.90
2019-06-10T04:36:42.277Z,18.40
2019-06-10T04:39:12.500Z,18.50
2019-06-10T04:41:43.099Z,18.60
2019-06-10T04:44:13.131Z,18.80
2019-06-10T04:46:43.017Z,18.80
2019-06-10T04:49:13.192Z,18.70
2019-06-10T04:51:43.442Z,18.40
2019-06-10T04:54:13.401Z,18.20
2019-06-10T04:56:42.792Z,17.70
2019-06-10T04:59:12.490Z,17.50
2019-06-10T05:01:42.574Z,17.50
2019-06-10T05:04:12.505Z,17.60
2019-06-10T05:06:42.184Z,17.70
2019-06-10T05:09:12.475Z,17.80
2019-06-10T05:11:43.121Z,18.20
2019-06-10T05:14:13.311Z,18.40
2019-06-10T05:16:43.107Z,18.70
2019-06-10T05:19:12.901Z,18.80
2019-06-10T05:21:42.401Z,19.00
2019-06-10T05:24:12.519Z,19.10
2019-06-10T05:26:42.569Z,19.30
2019-06-10T05:29:13.699Z,19.40
2019-06-10T05:31:43.612Z,19.50
2019-06-10T05:34:13.156Z,19.70
2019-06-10T05:36:43.514Z,19.80
2019-06-10T05:39:12.470Z,20.00
2019-06-10T05:41:43.036Z,20.10
2019-06-10T05:44:13.487Z,20.10
2019-06-10T05:46:43.595Z,20.10
2019-06-10T05:49:12.604Z,20.00
2019-06-10T05:51:42.358Z,20.10
2019-06-10T05:54:12.807Z,20.20
2019-06-10T05:56:43.225Z,20.40
2019-06-10T05:59:12.530Z,20.60
2019-06-10T06:01:43.195Z,20.80
2019-06-10T06:04:12.707Z,21.30
2019-06-10T06:06:44.717Z,22.00
2019-06-10T06:09:13.138Z,22.50
2019-06-10T06:11:43.062Z,23.00
2019-06-10T06:14:13.337Z,23.50
2019-06-10T06:16:43.246Z,23.60
2019-06-10T06:19:12.642Z,23.70
2019-06-10T06:21:46.553Z,24.10
2019-06-10T06:24:12.977Z,24.70
2019-06-10T06:26:43.186Z,25.00
2019-06-10T06:29:12.975Z,25.30
2019-06-10T06:31:42.922Z,25.40
2019-06-10T06:34:13.848Z,25.40
2019-06-10T06:36:42.535Z,25.50
2019-06-10T06:39:12.895Z,25.90
2019-06-10T06:41:42.974Z,26.10
2019-06-10T06:44:12.941Z,25.90
2019-06-10T06:46:42.991Z,25.60
2019-06-10T06:49:12.814Z,25.50
2019-06-10T06:51:51.700Z,25.10
2019-06-10T06:54:12.581Z,24.90
2019-06-10T06:56:43.774Z,24.80
2019-06-10T06:59:13.360Z,25.10
2019-06-10T07:01:44.031Z,25.20
2019-06-10T07:04:13.327Z,25.40
2019-06-10T07:06:43.261Z,25.30
2019-06-10T07:09:13.556Z,25.30
2019-06-10T07:11:45.612Z,25.20
2019-06-10T07:14:14.308Z,25.40
2019-06-10T07:16:46.005Z,25.60
2019-06-10T07:19:14.517Z,25.70
2019-06-10T07:22:04.165Z,25.80
2019-06-10T07:24:13.284Z,26.10
2019-06-10T07:26:49.559Z,26.30
2019-06-10T07:29:13.204Z,26.40
2019-06-10T07:31:45.918Z,26.70
2019-06-10T07:34:13.351Z,26.60
2019-06-10T07:36:44.093Z,26.50
2019-06-10T07:39:13.336Z,26.30
2019-06-10T07:41:47.348Z,26.20
2019-06-10T07:44:12.629Z,26.00
2019-06-10T07:46:43.769Z,26.00
2019-06-10T07:49:13.429Z,25.80
2019-06-10T07:52:14.876Z,25.70
2019-06-10T07:54:32.853Z,25.80
2019-06-10T07:57:02.425Z,25.70
2019-06-10T07:59:32.306Z,25.80
2019-06-10T08:02:03.052Z,25.70
2019-06-10T08:04:33.616Z,25.60
2019-06-10T08:07:03.350Z,25.40
2019-06-10T08:09:33.790Z,25.30
2019-06-10T08:12:05.784Z,25.40
2019-06-10T08:14:33.156Z,25.60
2019-06-10T08:17:03.129Z,25.80
2019-06-10T08:19:37.783Z,25.80
2019-06-10T08:22:02.918Z,25.70
2019-06-10T08:24:32.892Z,25.40
2019-06-10T08:27:02.739Z,25.20
2019-06-10T08:29:33.058Z,25.20
2019-06-10T08:32:03.341Z,25.30
2019-06-10T08:34:32.989Z,25.20
2019-06-10T08:37:04.263Z,25.30
2019-06-10T08:39:33.528Z,25.40
2019-06-10T08:42:03.182Z,25.70
2019-06-10T08:44:32.737Z,25.90
2019-06-10T08:47:03.074Z,26.30
2019-06-10T08:49:32.760Z,26.40
2019-06-10T08:52:02.665Z,26.40
2019-06-10T08:54:32.425Z,26.10
2019-06-10T08:57:03.698Z,26.00
2019-06-10T08:59:32.589Z,26.00
2019-06-10T09:02:02.987Z,26.50
2019-06-10T09:04:33.102Z,26.90
2019-06-10T09:07:04.200Z,27.50
2019-06-10T09:09:33.062Z,28.20
2019-06-10T09:12:03.599Z,28.50
2019-06-10T09:14:32.770Z,28.40
2019-06-10T09:17:03.384Z,28.50
2019-06-10T09:19:33.172Z,28.20
2019-06-10T09:22:03.470Z,27.80
2019-06-10T09:24:32.874Z,27.50
2019-06-10T09:27:02.924Z,27.40
2019-06-10T09:29:32.940Z,27.50
2019-06-10T09:32:02.264Z,28.20
2019-06-10T09:34:33.049Z,28.60
2019-06-10T09:37:03.540Z,28.70
2019-06-10T09:39:32.860Z,28.70
2019-06-10T09:42:06.098Z,28.40
2019-06-10T09:44:33.392Z,28.00
2019-06-10T09:47:05.091Z,27.90
2019-06-10T09:49:34.075Z,28.00
2019-06-10T09:52:03.460Z,28.10
2019-06-10T09:54:33.485Z,28.50
2019-06-10T09:57:03.296Z,28.90
2019-06-10T09:59:39.086Z,29.10
2019-06-10T10:02:07.866Z,29.10
2019-06-10T10:04:37.824Z,29.10
2019-06-10T10:07:08.054Z,29.30
2019-06-10T10:09:37.407Z,30.00
2019-06-10T10:12:06.163Z,30.50
2019-06-10T10:14:34.710Z,30.70
2019-06-10T10:17:04.688Z,31.00
2019-06-10T10:19:34.596Z,31.40
2019-06-10T10:22:03.588Z,32.10
2019-06-10T10:24:34.054Z,32.30
2019-06-10T10:27:08.344Z,31.70
2019-06-10T10:29:33.438Z,32.00
2019-06-10T10:32:02.681Z,32.80
2019-06-10T10:34:33.339Z,33.10
2019-06-10T10:37:02.861Z,33.60
2019-06-10T10:39:32.740Z,33.50
2019-06-10T10:42:03.366Z,33.70
2019-06-10T10:44:32.037Z,34.00
2019-06-10T10:47:03.482Z,33.80
2019-06-10T10:49:32.634Z,33.30
2019-06-10T10:52:02.653Z,33.50
2019-06-10T10:54:35.774Z,33.40
2019-06-10T10:57:02.578Z,33.70
2019-06-10T10:59:33.187Z,33.90
2019-06-10T11:02:02.334Z,34.60
2019-06-10T11:04:34.034Z,34.90
2019-06-10T11:07:03.542Z,35.00
2019-06-10T11:09:33.083Z,35.20
2019-06-10T11:12:03.559Z,35.50
2019-06-10T11:14:33.538Z,35.70
2019-06-10T11:17:03.061Z,35.50
2019-06-10T11:19:32.323Z,35.40
2019-06-10T11:22:02.954Z,35.30
2019-06-10T11:24:37.588Z,34.70
2019-06-10T11:27:03.285Z,33.70
2019-06-10T11:29:32.871Z,33.00
2019-06-10T11:32:03.080Z,33.00
2019-06-10T11:34:42.820Z,33.40
2019-06-10T11:37:12.662Z,33.20
2019-06-10T11:39:41.746Z,33.20
2019-06-10T11:42:10.300Z,33.70
2019-06-10T11:44:38.763Z,33.70
2019-06-10T11:47:07.393Z,33.40
2019-06-10T11:49:36.043Z,33.30
2019-06-10T11:52:23.105Z,32.90
2019-06-10T11:55:15.257Z,32.70
2019-06-10T11:57:39.227Z,32.40
2019-06-10T12:00:16.554Z,32.80
2019-06-10T12:02:42.631Z,33.40
2019-06-10T12:05:13.471Z,34.10
2019-06-10T12:07:42.770Z,34.30
2019-06-10T12:10:12.882Z,34.20
2019-06-10T12:12:43.345Z,33.90
2019-06-10T12:15:14.702Z,33.80
2019-06-10T12:17:51.044Z,33.60
2019-06-10T12:20:16.706Z,33.30
2019-06-10T12:22:45.593Z,33.50
2019-06-10T12:25:31.342Z,33.60
2019-06-10T12:27:45.851Z,33.50
2019-06-10T12:30:15.151Z,33.70
2019-06-10T12:32:43.628Z,33.50
2019-06-10T12:35:15.386Z,33.80
2019-06-10T12:37:43.884Z,34.10
2019-06-10T12:40:13.987Z,34.30
2019-06-10T12:42:42.941Z,33.60
2019-06-10T12:45:12.941Z,32.80
2019-06-10T12:47:42.508Z,32.40
2019-06-10T12:50:15.015Z,31.90
2019-06-10T12:52:44.089Z,31.70
2019-06-10T12:55:13.945Z,31.80
2019-06-10T12:57:42.895Z,32.30
2019-06-10T13:00:22.402Z,33.00
2019-06-10T13:02:48.451Z,33.40
2019-06-10T13:05:17.132Z,33.60
2019-06-10T13:07:46.248Z,33.70
2019-06-10T13:10:35.698Z,33.60
2019-06-10T13:13:07.187Z,33.60
2019-06-10T13:15:35.026Z,33.80
2019-06-10T13:18:07.572Z,34.10
2019-06-10T13:20:35.871Z,34.20
2019-06-10T13:23:17.221Z,34.20
2019-06-10T13:25:50.164Z,34.10
2019-06-10T13:28:06.777Z,34.40
2019-06-10T13:30:35.941Z,34.40
2019-06-10T13:33:10.466Z,34.40
2019-06-10T13:35:35.188Z,34.50
2019-06-10T13:38:05.702Z,34.30
2019-06-10T13:40:36.186Z,34.30
2019-06-10T13:43:06.054Z,34.30
2019-06-10T13:45:35.788Z,34.70
2019-06-10T13:48:07.904Z,34.90
2019-06-10T13:50:34.941Z,34.70
2019-06-10T13:53:06.232Z,34.50
2019-06-10T13:55:33.950Z,34.40
2019-06-10T13:58:06.210Z,34.30
2019-06-10T14:00:45.822Z,34.10
2019-06-10T14:03:09.201Z,34.30
2019-06-10T14:05:57.664Z,34.10
2019-06-10T14:08:23.257Z,33.80
2019-06-10T14:10:54.092Z,34.30
2019-06-10T14:13:23.510Z,34.60
2019-06-10T14:15:56.866Z,34.50
2019-06-10T14:18:32.463Z,34.20
2019-06-10T14:21:03.074Z,34.10
2019-06-10T14:23:33.104Z,34.10
2019-06-10T14:26:04.157Z,33.90
2019-06-10T14:28:40.458Z,33.90
2019-06-10T14:31:06.742Z,33.90
2019-06-10T14:33:35.468Z,33.60
2019-06-10T14:36:05.873Z,33.20
2019-06-10T14:38:34.588Z,33.00
2019-06-10T14:41:04.913Z,32.50
2019-06-10T14:43:34.291Z,32.40
2019-06-10T14:46:02.894Z,32.40
2019-06-10T14:48:33.675Z,32.40
2019-06-10T14:51:03.327Z,32.70
2019-06-10T14:53:33.733Z,32.80
2019-06-10T14:56:03.850Z,32.90
2019-06-10T14:58:32.625Z,33.00
2019-06-10T15:01:04.368Z,32.80
2019-06-10T15:03:32.752Z,32.70
2019-06-10T15:06:03.222Z,32.50
2019-06-10T15:08:32.381Z,32.20
2019-06-10T15:11:01.086Z,32.00
2019-06-10T15:13:29.596Z,32.20
2019-06-10T15:15:58.193Z,32.00
2019-06-10T15:18:26.785Z,32.00
2019-06-10T15:20:55.442Z,31.90
2019-06-10T15:23:24.063Z,32.00
2019-06-10T15:25:56.532Z,31.80
2019-06-10T15:28:23.520Z,32.00
2019-06-10T15:30:52.908Z,32.10
2019-06-10T15:33:23.767Z,32.40
2019-06-10T15:35:53.452Z,32.40
2019-06-10T15:38:23.199Z,32.20
2019-06-10T15:40:53.152Z,31.90
2019-06-10T15:43:23.389Z,32.00
2019-06-10T15:45:52.937Z,31.90
2019-06-10T15:48:25.392Z,31.80
2019-06-10T15:50:52.849Z,31.90
2019-06-10T15:53:25.422Z,32.10
2019-06-10T15:58:25.761Z,32.00
2019-06-10T16:00:53.587Z,31.60
2019-06-10T16:03:25.471Z,31.20
2019-06-10T16:05:53.205Z,31.10
2019-06-10T16:08:22.550Z,30.90
2019-06-10T16:10:52.666Z,30.70
2019-06-10T16:13:25.582Z,30.70
2019-06-10T16:15:53.358Z,30.70
2019-06-10T16:18:27.197Z,30.60
2019-06-10T16:20:53.163Z,30.50
2019-06-10T16:23:24.489Z,30.30
2019-06-10T16:25:53.611Z,30.20
2019-06-10T16:28:23.481Z,30.20
2019-06-10T16:30:53.708Z,30.10
2019-06-10T16:33:27.087Z,30.00
2019-06-10T16:35:53.138Z,30.00
2019-06-10T16:38:24.223Z,30.30
2019-06-10T16:40:53.737Z,30.50
2019-06-10T16:43:25.726Z,30.50
2019-06-10T16:45:53.221Z,30.40
2019-06-10T16:48:23.546Z,30.20
2019-06-10T16:50:54.321Z,30.00
2019-06-10T16:53:26.736Z,29.70
2019-06-10T16:55:54.216Z,29.60
2019-06-10T16:58:27.937Z,29.60
2019-06-10T17:00:54.306Z,29.60
2019-06-10T17:03:26.355Z,29.80
2019-06-10T17:05:53.540Z,29.50
2019-06-10T17:08:25.979Z,29.30
2019-06-10T17:10:56.698Z,29.20
2019-06-10T17:13:27.247Z,28.80
2019-06-10T17:15:57.206Z,28.60
2019-06-10T17:18:27.795Z,28.50
2019-06-10T17:20:56.477Z,28.40
2019-06-10T17:23:28.578Z,28.20
2019-06-10T17:25:56.943Z,28.10
2019-06-10T17:28:30.661Z,28.00
2019-06-10T17:30:57.829Z,27.90
2019-06-10T17:33:28.272Z,27.80
2019-06-10T17:35:57.417Z,27.80
2019-06-10T17:38:26.925Z,27.80
2019-06-10T17:40:55.788Z,27.70
2019-06-10T17:43:25.209Z,27.70
2019-06-10T17:45:53.982Z,27.70
2019-06-10T17:48:24.302Z,27.60
2019-06-10T17:50:54.379Z,27.50
2019-06-10T17:53:24.277Z,27.30
2019-06-10T17:55:52.975Z,27.20
2019-06-10T17:58:33.367Z,27.00
2019-06-10T18:00:53.160Z,26.80
2019-06-10T18:03:23.206Z,26.70
2019-06-10T18:05:53.263Z,26.60
2019-06-10T18:08:22.837Z,26.50
2019-06-10T18:10:53.545Z,26.50
2019-06-10T18:13:24.605Z,26.50
2019-06-10T18:15:53.606Z,26.40
2019-06-10T18:18:22.463Z,26.40
2019-06-10T18:20:53.645Z,26.50
2019-06-10T18:23:23.249Z,26.40
2019-06-10T18:25:52.803Z,26.30
2019-06-10T18:28:22.641Z,26.20
2019-06-10T18:30:53.115Z,26.00
2019-06-10T18:33:23.128Z,25.90
2019-06-10T18:35:53.478Z,25.80
2019-06-10T18:38:22.268Z,25.70
2019-06-10T18:40:53.336Z,25.60
2019-06-10T18:43:23.714Z,25.50
2019-06-10T18:45:53.218Z,25.50
2019-06-10T18:48:23.078Z,25.50
2019-06-10T18:50:53.287Z,25.50
2019-06-10T18:53:23.387Z,25.50
2019-06-10T18:55:54.915Z,25.40
2019-06-10T18:58:23.337Z,25.40
2019-06-10T19:01:00.707Z,25.30
2019-06-10T19:03:23.332Z,25.20
2019-06-10T19:05:53.077Z,25.10
2019-06-10T19:08:22.551Z,25.00
2019-06-10T19:10:53.671Z,24.90
2019-06-10T19:13:22.678Z,24.80
2019-06-10T19:15:53.004Z,24.70
2019-06-10T19:18:23.291Z,24.30
2019-06-10T19:20:52.970Z,24.10
2019-06-10T19:23:22.927Z,23.90
2019-06-10T19:25:52.495Z,23.70
2019-06-10T19:28:22.925Z,23.60
2019-06-10T19:30:53.340Z,23.60
2019-06-10T19:33:23.469Z,23.60
2019-06-10T19:35:53.124Z,23.80
2019-06-10T19:38:22.979Z,24.00
2019-06-10T19:40:52.435Z,24.00
2019-06-10T19:43:21.191Z,24.10
2019-06-10T19:45:49.961Z,24.10
2019-06-10T19:48:18.546Z,24.10
2019-06-10T19:50:50.445Z,24.10
2019-06-10T19:53:37.267Z,23.90
2019-06-10T19:56:05.995Z,23.80
2019-06-10T19:58:34.591Z,23.90
2019-06-10T20:01:22.571Z,24.00
2019-06-10T20:03:52.059Z,24.00
2019-06-10T20:06:20.907Z,24.00
2019-06-10T20:08:49.436Z,24.10
2019-06-10T20:11:17.931Z,24.10
2019-06-10T20:13:46.898Z,24.20
2019-06-10T20:16:17.408Z,24.30
2019-06-10T20:18:48.208Z,24.40
2019-06-10T20:21:16.627Z,24.60
2019-06-10T20:23:45.883Z,24.70
2019-06-10T20:26:14.658Z,24.70
2019-06-10T20:28:43.768Z,24.70
2019-06-10T20:31:14.101Z,24.60
2019-06-10T20:33:43.223Z,24.50
2019-06-10T20:36:21.209Z,24.50
2019-06-10T20:38:46.426Z,24.40
2019-06-10T20:41:12.804Z,24.30
2019-06-10T20:43:43.860Z,24.10
2019-06-10T20:46:12.965Z,24.00
2019-06-10T20:48:45.486Z,24.00
2019-06-10T20:51:13.606Z,23.90
2019-06-10T20:53:43.276Z,23.70
2019-06-10T20:56:12.785Z,23.50
2019-06-10T20:58:45.013Z,23.30
2019-06-10T21:01:14.004Z,23.30
2019-06-10T21:03:44.217Z,23.20
2019-06-10T21:06:13.862Z,23.10
2019-06-10T21:08:46.779Z,22.90
2019-06-10T21:11:13.936Z,22.80
2019-06-10T21:13:46.022Z,22.70
2019-06-10T21:16:12.949Z,22.60
2019-06-10T21:18:45.533Z,22.40
2019-06-10T21:21:12.333Z,22.10
2019-06-10T21:23:43.497Z,21.80
2019-06-10T21:26:13.815Z,21.80
2019-06-10T21:28:44.327Z,21.80
2019-06-10T21:31:12.897Z,21.80
2019-06-10T21:33:43.880Z,21.80
2019-06-10T21:36:12.395Z,21.60
2019-06-10T21:38:44.262Z,21.50
2019-06-10T21:41:12.359Z,21.50
2019-06-10T21:43:45.928Z,21.40
2019-06-10T21:46:13.151Z,21.30
2019-06-10T21:48:42.935Z,21.20
2019-06-10T21:51:12.310Z,21.00
2019-06-10T21:53:40.972Z,20.90
2019-06-10T21:56:09.392Z,20.80
2019-06-10T21:58:37.910Z,20.70
2019-06-10T22:01:12.878Z,20.60
2019-06-10T22:03:37.365Z,20.80
2019-06-10T22:06:06.192Z,21.10
2019-06-10T22:08:34.624Z,21.20
2019-06-10T22:11:03.155Z,21.40
2019-06-10T22:13:32.868Z,21.60
2019-06-10T22:16:03.288Z,21.60
2019-06-10T22:18:32.248Z,21.70
2019-06-10T22:21:02.736Z,21.90
2019-06-10T22:23:33.101Z,22.00
2019-06-10T22:26:02.745Z,22.00
2019-06-10T22:28:32.874Z,22.30
2019-06-10T22:31:16.045Z,22.20
2019-06-10T22:33:31.958Z,22.20
2019-06-10T22:36:02.351Z,22.20
2019-06-10T22:38:32.855Z,22.10
2019-06-10T22:41:03.186Z,22.10
2019-06-10T22:43:32.192Z,22.00
2019-06-10T22:46:00.774Z,21.90
2019-06-10T22:48:29.284Z,21.80
2019-06-10T22:50:57.681Z,21.80
2019-06-10T22:53:28.422Z,21.60
2019-06-10T22:55:58.090Z,21.60
2019-06-10T22:58:27.626Z,21.40
2019-06-10T23:00:57.764Z,21.30
2019-06-10T23:03:26.324Z,21.40
2019-06-10T23:05:54.879Z,21.40
2019-06-10T23:08:23.384Z,21.50
2019-06-10T23:10:53.781Z,21.70
2019-06-10T23:13:23.118Z,21.90
2019-06-10T23:15:53.968Z,22.00
2019-06-10T23:18:22.501Z,22.00
2019-06-10T23:20:53.908Z,22.10
2019-06-10T23:23:23.348Z,22.20
2019-06-10T23:25:53.700Z,22.20
2019-06-10T23:28:22.372Z,22.20
2019-06-10T23:30:55.308Z,22.20
2019-06-10T23:33:22.858Z,22.20
2019-06-10T23:35:52.593Z,22.20
2019-06-10T23:38:23.608Z,22.20
2019-06-10T23:40:52.803Z,22.30
2019-06-10T23:43:22.492Z,22.30
2019-06-10T23:45:51.247Z,22.20
2019-06-10T23:48:19.748Z,22.00
2019-06-10T23:50:48.239Z,21.80
2019-06-10T23:53:16.806Z,21.60
2019-06-10T23:55:45.339Z,21.50
2019-06-10T23:58:14.203Z,21.50
